sensor_id;sensor_type;location;lat;lon;timestamp;P1;P2;P0
47705;PMS5003;33471;52.104;1.318;2022-10-04T00:01:48;16;15;
47705;PMS5003;33471;52.104;1.318;2022-10-04T00:04:19;9;9;
47705;PMS5003;33471;52.104;1.318;2022-10-04T00:06:53;17;17;
47705;PMS5003;33471;52.104;1.318;2022-10-04T00:09:25;12;12;
47705;PMS5003;33471;52.104;1.318;2022-10-04T00:11:57;18;12;
47705;PMS5003;33471;52.104;1.318;2022-10-04T00:14:27;16;15;
47705;PMS5003;33471;52.104;1.318;2022-10-04T00:16:58;10;10;
47705;PMS5003;33471;52.104;1.318;2022-10-04T00:19:37;13;11;
47705;PMS5003;33471;52.104;1.318;2022-10-04T00:22:25;15;15;
47705;PMS5003;33471;52.104;1.318;2022-10-04T00:25:15;16;16;
47705;PMS5003;33471;52.104;1.318;2022-10-04T00:28:50;11;10;
47705;PMS5003;33471;52.104;1.318;2022-10-04T00:31:19;12;10;
47705;PMS5003;33471;52.104;1.318;2022-10-04T00:33:48;9;9;
47705;PMS5003;33471;52.104;1.318;2022-10-04T00:36:51;10;8;
47705;PMS5003;33471;52.104;1.318;2022-10-04T00:39:23;12;12;
47705;PMS5003;33471;52.104;1.318;2022-10-04T00:41:56;11;11;
47705;PMS5003;33471;52.104;1.318;2022-10-04T00:44:34;18;18;
47705;PMS5003;33471;52.104;1.318;2022-10-04T00:47:12;9;9;
47705;PMS5003;33471;52.104;1.318;2022-10-04T00:49:47;12;12;
47705;PMS5003;33471;52.104;1.318;2022-10-04T00:52:18;17;12;
47705;PMS5003;33471;52.104;1.318;2022-10-04T00:54:49;13;11;
47705;PMS5003;33471;52.104;1.318;2022-10-04T00:57:20;20;20;
47705;PMS5003;33471;52.104;1.318;2022-10-04T00:59:52;16;14;
47705;PMS5003;33471;52.104;1.318;2022-10-04T01:02:24;16;15;
47705;PMS5003;33471;52.104;1.318;2022-10-04T01:04:58;17;16;
47705;PMS5003;33471;52.104;1.318;2022-10-04T01:07:29;18;17;
47705;PMS5003;33471;52.104;1.318;2022-10-04T01:10:03;24;21;
47705;PMS5003;33471;52.104;1.318;2022-10-04T01:12:40;22;21;
47705;PMS5003;33471;52.104;1.318;2022-10-04T01:15:15;24;23;
47705;PMS5003;33471;52.104;1.318;2022-10-04T01:18:09;27;24;
47705;PMS5003;33471;52.104;1.318;2022-10-04T01:20:39;23;21;
47705;PMS5003;33471;52.104;1.318;2022-10-04T01:23:29;19;19;
47705;PMS5003;33471;52.104;1.318;2022-10-04T01:26:06;21;17;
47705;PMS5003;33471;52.104;1.318;2022-10-04T01:29:05;20;18;
47705;PMS5003;33471;52.104;1.318;2022-10-04T01:31:35;19;17;
47705;PMS5003;33471;52.104;1.318;2022-10-04T01:34:04;18;17;
47705;PMS5003;33471;52.104;1.318;2022-10-04T01:36:33;17;17;
47705;PMS5003;33471;52.104;1.318;2022-10-04T01:39:01;17;17;
47705;PMS5003;33471;52.104;1.318;2022-10-04T01:41:31;25;23;
47705;PMS5003;33471;52.104;1.318;2022-10-04T01:44:04;23;23;
47705;PMS5003;33471;52.104;1.318;2022-10-04T01:46:35;23;21;
47705;PMS5003;33471;52.104;1.318;2022-10-04T01:49:06;22;18;
47705;PMS5003;33471;52.104;1.318;2022-10-04T01:51:37;22;21;
47705;PMS5003;33471;52.104;1.318;2022-10-04T01:54:12;26;25;
47705;PMS5003;33471;52.104;1.318;2022-10-04T01:56:44;20;19;
47705;PMS5003;33471;52.104;1.318;2022-10-04T01:59:16;31;29;
47705;PMS5003;33471;52.104;1.318;2022-10-04T02:01:49;28;26;
47705;PMS5003;33471;52.104;1.318;2022-10-04T02:04:22;23;21;
47705;PMS5003;33471;52.104;1.318;2022-10-04T02:06:54;24;23;
47705;PMS5003;33471;52.104;1.318;2022-10-04T02:09:24;24;24;
47705;PMS5003;33471;52.104;1.318;2022-10-04T02:11:55;23;22;
47705;PMS5003;33471;52.104;1.318;2022-10-04T02:14:24;25;22;
47705;PMS5003;33471;52.104;1.318;2022-10-04T02:16:54;24;23;
47705;PMS5003;33471;52.104;1.318;2022-10-04T02:19:22;30;28;
47705;PMS5003;33471;52.104;1.318;2022-10-04T02:21:56;23;21;
47705;PMS5003;33471;52.104;1.318;2022-10-04T02:24:26;25;22;
47705;PMS5003;33471;52.104;1.318;2022-10-04T02:26:53;27;23;
47705;PMS5003;33471;52.104;1.318;2022-10-04T02:29:20;22;22;
47705;PMS5003;33471;52.104;1.318;2022-10-04T02:31:48;26;24;
47705;PMS5003;33471;52.104;1.318;2022-10-04T02:34:17;30;28;
47705;PMS5003;33471;52.104;1.318;2022-10-04T02:36:45;22;22;
47705;PMS5003;33471;52.104;1.318;2022-10-04T02:39:13;26;21;
47705;PMS5003;33471;52.104;1.318;2022-10-04T02:41:47;19;18;
47705;PMS5003;33471;52.104;1.318;2022-10-04T02:44:18;27;25;
47705;PMS5003;33471;52.104;1.318;2022-10-04T02:46:52;24;19;
47705;PMS5003;33471;52.104;1.318;2022-10-04T02:49:25;34;30;
47705;PMS5003;33471;52.104;1.318;2022-10-04T02:51:59;33;30;
47705;PMS5003;33471;52.104;1.318;2022-10-04T02:54:32;32;26;
47705;PMS5003;33471;52.104;1.318;2022-10-04T02:57:08;26;26;
47705;PMS5003;33471;52.104;1.318;2022-10-04T02:59:40;30;26;
47705;PMS5003;33471;52.104;1.318;2022-10-04T03:02:19;30;30;
47705;PMS5003;33471;52.104;1.318;2022-10-04T03:04:49;26;25;
47705;PMS5003;33471;52.104;1.318;2022-10-04T03:07:19;23;21;
47705;PMS5003;33471;52.104;1.318;2022-10-04T03:09:49;28;26;
47705;PMS5003;33471;52.104;1.318;2022-10-04T03:12:18;26;25;
47705;PMS5003;33471;52.104;1.318;2022-10-04T03:14:45;19;19;
47705;PMS5003;33471;52.104;1.318;2022-10-04T03:17:13;28;27;
47705;PMS5003;33471;52.104;1.318;2022-10-04T03:19:43;21;20;
47705;PMS5003;33471;52.104;1.318;2022-10-04T03:22:16;25;24;
47705;PMS5003;33471;52.104;1.318;2022-10-04T03:24:45;23;20;
47705;PMS5003;33471;52.104;1.318;2022-10-04T03:27:16;23;23;
47705;PMS5003;33471;52.104;1.318;2022-10-04T03:29:48;23;23;
47705;PMS5003;33471;52.104;1.318;2022-10-04T03:32:17;19;19;
47705;PMS5003;33471;52.104;1.318;2022-10-04T03:34:48;22;21;
47705;PMS5003;33471;52.104;1.318;2022-10-04T03:37:22;22;20;
47705;PMS5003;33471;52.104;1.318;2022-10-04T03:39:52;24;24;
47705;PMS5003;33471;52.104;1.318;2022-10-04T03:42:21;32;28;
47705;PMS5003;33471;52.104;1.318;2022-10-04T03:44:51;25;22;
47705;PMS5003;33471;52.104;1.318;2022-10-04T03:47:21;30;27;
47705;PMS5003;33471;52.104;1.318;2022-10-04T03:49:52;25;23;
47705;PMS5003;33471;52.104;1.318;2022-10-04T03:52:23;23;20;
47705;PMS5003;33471;52.104;1.318;2022-10-04T03:54:53;23;19;
47705;PMS5003;33471;52.104;1.318;2022-10-04T03:57:26;20;19;
47705;PMS5003;33471;52.104;1.318;2022-10-04T03:59:54;22;20;
47705;PMS5003;33471;52.104;1.318;2022-10-04T04:02:25;25;24;
47705;PMS5003;33471;52.104;1.318;2022-10-04T04:05:02;19;17;
47705;PMS5003;33471;52.104;1.318;2022-10-04T04:07:35;26;23;
47705;PMS5003;33471;52.104;1.318;2022-10-04T04:10:12;22;21;
47705;PMS5003;33471;52.104;1.318;2022-10-04T04:12:48;21;19;
47705;PMS5003;33471;52.104;1.318;2022-10-04T04:15:22;27;26;
47705;PMS5003;33471;52.104;1.318;2022-10-04T04:17:54;26;23;
47705;PMS5003;33471;52.104;1.318;2022-10-04T04:20:27;36;29;
47705;PMS5003;33471;52.104;1.318;2022-10-04T04:23:00;19;19;
47705;PMS5003;33471;52.104;1.318;2022-10-04T04:25:31;29;26;
47705;PMS5003;33471;52.104;1.318;2022-10-04T04:28:06;25;23;
47705;PMS5003;33471;52.104;1.318;2022-10-04T04:30:43;20;18;
47705;PMS5003;33471;52.104;1.318;2022-10-04T04:33:14;31;28;
47705;PMS5003;33471;52.104;1.318;2022-10-04T04:35:52;23;20;
47705;PMS5003;33471;52.104;1.318;2022-10-04T04:38:21;27;25;
47705;PMS5003;33471;52.104;1.318;2022-10-04T04:40:50;26;24;
47705;PMS5003;33471;52.104;1.318;2022-10-04T04:43:19;20;19;
47705;PMS5003;33471;52.104;1.318;2022-10-04T04:45:47;20;19;
47705;PMS5003;33471;52.104;1.318;2022-10-04T04:48:16;24;21;
47705;PMS5003;33471;52.104;1.318;2022-10-04T04:50:47;27;17;
47705;PMS5003;33471;52.104;1.318;2022-10-04T04:53:20;28;28;
47705;PMS5003;33471;52.104;1.318;2022-10-04T04:55:50;17;17;
47705;PMS5003;33471;52.104;1.318;2022-10-04T04:58:22;20;19;
47705;PMS5003;33471;52.104;1.318;2022-10-04T05:00:53;24;21;
47705;PMS5003;33471;52.104;1.318;2022-10-04T05:03:23;26;21;
47705;PMS5003;33471;52.104;1.318;2022-10-04T05:05:50;20;19;
47705;PMS5003;33471;52.104;1.318;2022-10-04T05:08:19;17;15;
47705;PMS5003;33471;52.104;1.318;2022-10-04T05:10:49;18;18;
47705;PMS5003;33471;52.104;1.318;2022-10-04T05:13:26;22;22;
47705;PMS5003;33471;52.104;1.318;2022-10-04T05:15:58;20;20;
47705;PMS5003;33471;52.104;1.318;2022-10-04T05:18:28;22;21;
47705;PMS5003;33471;52.104;1.318;2022-10-04T05:20:57;15;15;
47705;PMS5003;33471;52.104;1.318;2022-10-04T05:23:32;17;17;
47705;PMS5003;33471;52.104;1.318;2022-10-04T05:26:00;16;14;
47705;PMS5003;33471;52.104;1.318;2022-10-04T05:28:28;15;15;
47705;PMS5003;33471;52.104;1.318;2022-10-04T05:31:03;13;12;
47705;PMS5003;33471;52.104;1.318;2022-10-04T05:33:54;17;16;
47705;PMS5003;33471;52.104;1.318;2022-10-04T05:36:43;19;18;
47705;PMS5003;33471;52.104;1.318;2022-10-04T05:39:22;18;18;
47705;PMS5003;33471;52.104;1.318;2022-10-04T05:41:55;17;13;
47705;PMS5003;33471;52.104;1.318;2022-10-04T05:44:28;17;17;
47705;PMS5003;33471;52.104;1.318;2022-10-04T05:47:00;17;16;
47705;PMS5003;33471;52.104;1.318;2022-10-04T05:49:32;15;13;
47705;PMS5003;33471;52.104;1.318;2022-10-04T05:52:12;13;13;
47705;PMS5003;33471;52.104;1.318;2022-10-04T05:54:41;18;15;
47705;PMS5003;33471;52.104;1.318;2022-10-04T05:57:19;14;11;
47705;PMS5003;33471;52.104;1.318;2022-10-04T06:00:01;17;14;
47705;PMS5003;33471;52.104;1.318;2022-10-04T06:02:42;15;13;
47705;PMS5003;33471;52.104;1.318;2022-10-04T06:05:24;21;19;
47705;PMS5003;33471;52.104;1.318;2022-10-04T06:08:08;12;12;
47705;PMS5003;33471;52.104;1.318;2022-10-04T06:10:48;12;11;
47705;PMS5003;33471;52.104;1.318;2022-10-04T06:13:35;18;18;
47705;PMS5003;33471;52.104;1.318;2022-10-04T06:16:21;16;14;
47705;PMS5003;33471;52.104;1.318;2022-10-04T06:19:05;14;13;
47705;PMS5003;33471;52.104;1.318;2022-10-04T06:21:45;9;8;
47705;PMS5003;33471;52.104;1.318;2022-10-04T06:24:28;18;13;
47705;PMS5003;33471;52.104;1.318;2022-10-04T06:26:59;9;9;
47705;PMS5003;33471;52.104;1.318;2022-10-04T06:29:35;15;14;
47705;PMS5003;33471;52.104;1.318;2022-10-04T06:32:19;20;15;
47705;PMS5003;33471;52.104;1.318;2022-10-04T06:35:09;20;14;
47705;PMS5003;33471;52.104;1.318;2022-10-04T06:37:55;19;15;
47705;PMS5003;33471;52.104;1.318;2022-10-04T06:40:49;13;12;
47705;PMS5003;33471;52.104;1.318;2022-10-04T06:43:44;12;12;
47705;PMS5003;33471;52.104;1.318;2022-10-04T06:46:25;15;13;
47705;PMS5003;33471;52.104;1.318;2022-10-04T06:49:09;10;9;
47705;PMS5003;33471;52.104;1.318;2022-10-04T06:51:54;13;11;
47705;PMS5003;33471;52.104;1.318;2022-10-04T06:54:42;8;8;
47705;PMS5003;33471;52.104;1.318;2022-10-04T06:57:57;14;14;
47705;PMS5003;33471;52.104;1.318;2022-10-04T07:00:55;11;11;
47705;PMS5003;33471;52.104;1.318;2022-10-04T07:03:30;12;12;
47705;PMS5003;33471;52.104;1.318;2022-10-04T07:06:04;17;17;
47705;PMS5003;33471;52.104;1.318;2022-10-04T07:08:37;8;8;
47705;PMS5003;33471;52.104;1.318;2022-10-04T07:11:12;20;19;
47705;PMS5003;33471;52.104;1.318;2022-10-04T07:13:47;28;27;
47705;PMS5003;33471;52.104;1.318;2022-10-04T07:16:24;24;24;
47705;PMS5003;33471;52.104;1.318;2022-10-04T07:19:02;20;19;
47705;PMS5003;33471;52.104;1.318;2022-10-04T07:21:41;18;18;
47705;PMS5003;33471;52.104;1.318;2022-10-04T07:24:18;12;11;
47705;PMS5003;33471;52.104;1.318;2022-10-04T07:26:49;11;11;
47705;PMS5003;33471;52.104;1.318;2022-10-04T07:29:21;12;12;
47705;PMS5003;33471;52.104;1.318;2022-10-04T07:32:02;11;11;
47705;PMS5003;33471;52.104;1.318;2022-10-04T07:34:36;8;8;
47705;PMS5003;33471;52.104;1.318;2022-10-04T07:37:10;9;9;
47705;PMS5003;33471;52.104;1.318;2022-10-04T07:39:41;13;13;
47705;PMS5003;33471;52.104;1.318;2022-10-04T07:42:19;9;9;
47705;PMS5003;33471;52.104;1.318;2022-10-04T07:44:54;10;9;
47705;PMS5003;33471;52.104;1.318;2022-10-04T07:47:30;7;7;
47705;PMS5003;33471;52.104;1.318;2022-10-04T07:49:58;9;9;
47705;PMS5003;33471;52.104;1.318;2022-10-04T07:52:29;11;10;
47705;PMS5003;33471;52.104;1.318;2022-10-04T07:55:12;12;12;
47705;PMS5003;33471;52.104;1.318;2022-10-04T07:57:51;9;9;
47705;PMS5003;33471;52.104;1.318;2022-10-04T08:00:29;15;15;
47705;PMS5003;33471;52.104;1.318;2022-10-04T08:03:09;11;11;
47705;PMS5003;33471;52.104;1.318;2022-10-04T08:05:48;7;7;
47705;PMS5003;33471;52.104;1.318;2022-10-04T08:08:30;11;9;
47705;PMS5003;33471;52.104;1.318;2022-10-04T08:11:15;9;7;
47705;PMS5003;33471;52.104;1.318;2022-10-04T08:13:51;11;11;
47705;PMS5003;33471;52.104;1.318;2022-10-04T08:16:34;11;11;
47705;PMS5003;33471;52.104;1.318;2022-10-04T08:19:14;10;10;
47705;PMS5003;33471;52.104;1.318;2022-10-04T08:21:57;5;5;
47705;PMS5003;33471;52.104;1.318;2022-10-04T08:24:28;9;8;
47705;PMS5003;33471;52.104;1.318;2022-10-04T08:27:12;8;7;
47705;PMS5003;33471;52.104;1.318;2022-10-04T08:29:56;6;6;
47705;PMS5003;33471;52.104;1.318;2022-10-04T08:32:50;6;6;
47705;PMS5003;33471;52.104;1.318;2022-10-04T08:35:31;3;3;
47705;PMS5003;33471;52.104;1.318;2022-10-04T08:38:39;11;11;
47705;PMS5003;33471;52.104;1.318;2022-10-04T08:41:24;9;6;
47705;PMS5003;33471;52.104;1.318;2022-10-04T08:42:08;9;6;
47705;PMS5003;33471;52.104;1.318;2022-10-04T08:45:14;6;5;
47705;PMS5003;33471;52.104;1.318;2022-10-04T08:48:21;7;7;
47705;PMS5003;33471;52.104;1.318;2022-10-04T08:52:00;8;7;
47705;PMS5003;33471;52.104;1.318;2022-10-04T08:54:54;10;8;
47705;PMS5003;33471;52.104;1.318;2022-10-04T08:55:42;10;8;
47705;PMS5003;33471;52.104;1.318;2022-10-04T08:58:25;4;4;
47705;PMS5003;33471;52.104;1.318;2022-10-04T09:01:22;6;6;
47705;PMS5003;33471;52.104;1.318;2022-10-04T09:04:14;5;5;
47705;PMS5003;33471;52.104;1.318;2022-10-04T09:07:08;6;6;
47705;PMS5003;33471;52.104;1.318;2022-10-04T09:10:05;5;5;
47705;PMS5003;33471;52.104;1.318;2022-10-04T09:12:58;5;5;
47705;PMS5003;33471;52.104;1.318;2022-10-04T09:15:47;4;4;
47705;PMS5003;33471;52.104;1.318;2022-10-04T09:18:20;4;4;
47705;PMS5003;33471;52.104;1.318;2022-10-04T09:20:58;5;5;
47705;PMS5003;33471;52.104;1.318;2022-10-04T09:24:11;10;10;
47705;PMS5003;33471;52.104;1.318;2022-10-04T09:27:04;5;5;
47705;PMS5003;33471;52.104;1.318;2022-10-04T09:29:51;5;5;
47705;PMS5003;33471;52.104;1.318;2022-10-04T09:32:53;6;6;
47705;PMS5003;33471;52.104;1.318;2022-10-04T09:36:10;4;4;
47705;PMS5003;33471;52.104;1.318;2022-10-04T09:39:03;6;6;
47705;PMS5003;33471;52.104;1.318;2022-10-04T09:41:47;5;5;
47705;PMS5003;33471;52.104;1.318;2022-10-04T09:44:38;9;9;
47705;PMS5003;33471;52.104;1.318;2022-10-04T09:47:27;5;5;
47705;PMS5003;33471;52.104;1.318;2022-10-04T09:50:34;4;4;
47705;PMS5003;33471;52.104;1.318;2022-10-04T09:53:20;4;4;
47705;PMS5003;33471;52.104;1.318;2022-10-04T09:56:37;6;4;
47705;PMS5003;33471;52.104;1.318;2022-10-04T09:59:26;3;3;
47705;PMS5003;33471;52.104;1.318;2022-10-04T10:02:15;3;3;
47705;PMS5003;33471;52.104;1.318;2022-10-04T10:05:11;4;4;
47705;PMS5003;33471;52.104;1.318;2022-10-04T10:08:16;4;4;
47705;PMS5003;33471;52.104;1.318;2022-10-04T10:10:53;2;2;
47705;PMS5003;33471;52.104;1.318;2022-10-04T10:13:31;2;2;
47705;PMS5003;33471;52.104;1.318;2022-10-04T10:16:25;3;3;
47705;PMS5003;33471;52.104;1.318;2022-10-04T10:19:09;2;2;
47705;PMS5003;33471;52.104;1.318;2022-10-04T10:21:54;4;3;
47705;PMS5003;33471;52.104;1.318;2022-10-04T10:25:22;1;1;
47705;PMS5003;33471;52.104;1.318;2022-10-04T10:28:04;4;4;
47705;PMS5003;33471;52.104;1.318;2022-10-04T10:30:47;3;3;
47705;PMS5003;33471;52.104;1.318;2022-10-04T10:33:35;4;3;
47705;PMS5003;33471;52.104;1.318;2022-10-04T10:36:26;3;3;
47705;PMS5003;33471;52.104;1.318;2022-10-04T10:39:14;2;2;
47705;PMS5003;33471;52.104;1.318;2022-10-04T10:42:08;4;3;
47705;PMS5003;33471;52.104;1.318;2022-10-04T10:44:56;4;3;
47705;PMS5003;33471;52.104;1.318;2022-10-04T10:47:37;4;4;
47705;PMS5003;33471;52.104;1.318;2022-10-04T10:50:17;3;3;
47705;PMS5003;33471;52.104;1.318;2022-10-04T10:54:41;1;1;
47705;PMS5003;33471;52.104;1.318;2022-10-04T10:57:30;3;3;
47705;PMS5003;33471;52.104;1.318;2022-10-04T11:00:17;2;2;
47705;PMS5003;33471;52.104;1.318;2022-10-04T11:03:22;4;1;
47705;PMS5003;33471;52.104;1.318;2022-10-04T11:06:22;2;2;
47705;PMS5003;33471;52.104;1.318;2022-10-04T11:09:22;3;3;
47705;PMS5003;33471;52.104;1.318;2022-10-04T11:12:02;3;2;
47705;PMS5003;33471;52.104;1.318;2022-10-04T11:12:43;3;2;
47705;PMS5003;33471;52.104;1.318;2022-10-04T11:15:32;2;2;
47705;PMS5003;33471;52.104;1.318;2022-10-04T11:18:23;3;3;
47705;PMS5003;33471;52.104;1.318;2022-10-04T11:21:52;4;4;
47705;PMS5003;33471;52.104;1.318;2022-10-04T11:25:45;3;3;
47705;PMS5003;33471;52.104;1.318;2022-10-04T11:28:29;2;1;
47705;PMS5003;33471;52.104;1.318;2022-10-04T11:31:15;3;3;
47705;PMS5003;33471;52.104;1.318;2022-10-04T11:34:33;4;4;
47705;PMS5003;33471;52.104;1.318;2022-10-04T11:35:30;4;4;
47705;PMS5003;33471;52.104;1.318;2022-10-04T11:38:14;3;3;
47705;PMS5003;33471;52.104;1.318;2022-10-04T11:41:00;3;2;
47705;PMS5003;33471;52.104;1.318;2022-10-04T11:43:41;4;4;
47705;PMS5003;33471;52.104;1.318;2022-10-04T11:46:23;2;2;
47705;PMS5003;33471;52.104;1.318;2022-10-04T11:49:06;2;2;
47705;PMS5003;33471;52.104;1.318;2022-10-04T11:51:54;3;3;
47705;PMS5003;33471;52.104;1.318;2022-10-04T11:53:12;3;3;
47705;PMS5003;33471;52.104;1.318;2022-10-04T11:54:02;3;3;
47705;PMS5003;33471;52.104;1.318;2022-10-04T11:57:23;3;3;
47705;PMS5003;33471;52.104;1.318;2022-10-04T11:59:58;2;2;
47705;PMS5003;33471;52.104;1.318;2022-10-04T12:02:43;2;2;
47705;PMS5003;33471;52.104;1.318;2022-10-04T12:05:28;2;2;
47705;PMS5003;33471;52.104;1.318;2022-10-04T12:08:14;3;3;
47705;PMS5003;33471;52.104;1.318;2022-10-04T12:11:00;2;2;
47705;PMS5003;33471;52.104;1.318;2022-10-04T12:13:58;3;3;
47705;PMS5003;33471;52.104;1.318;2022-10-04T12:16:44;2;2;
47705;PMS5003;33471;52.104;1.318;2022-10-04T12:19:38;4;4;
47705;PMS5003;33471;52.104;1.318;2022-10-04T12:22:44;3;3;
47705;PMS5003;33471;52.104;1.318;2022-10-04T12:26:01;4;4;
47705;PMS5003;33471;52.104;1.318;2022-10-04T12:28:50;2;2;
47705;PMS5003;33471;52.104;1.318;2022-10-04T12:31:32;5;5;
47705;PMS5003;33471;52.104;1.318;2022-10-04T12:34:06;4;4;
47705;PMS5003;33471;52.104;1.318;2022-10-04T12:36:48;3;3;
47705;PMS5003;33471;52.104;1.318;2022-10-04T12:39:28;3;3;
47705;PMS5003;33471;52.104;1.318;2022-10-04T12:42:08;5;5;
47705;PMS5003;33471;52.104;1.318;2022-10-04T12:44:47;5;4;
47705;PMS5003;33471;52.104;1.318;2022-10-04T12:47:35;2;2;
47705;PMS5003;33471;52.104;1.318;2022-10-04T12:50:11;2;2;
47705;PMS5003;33471;52.104;1.318;2022-10-04T12:52:49;2;2;
47705;PMS5003;33471;52.104;1.318;2022-10-04T12:55:37;2;2;
47705;PMS5003;33471;52.104;1.318;2022-10-04T12:58:15;3;3;
47705;PMS5003;33471;52.104;1.318;2022-10-04T13:00:47;2;2;
47705;PMS5003;33471;52.104;1.318;2022-10-04T13:03:23;3;3;
47705;PMS5003;33471;52.104;1.318;2022-10-04T13:05:59;2;2;
47705;PMS5003;33471;52.104;1.318;2022-10-04T13:08:41;4;4;
47705;PMS5003;33471;52.104;1.318;2022-10-04T13:11:29;6;5;
47705;PMS5003;33471;52.104;1.318;2022-10-04T13:14:17;3;3;
47705;PMS5003;33471;52.104;1.318;2022-10-04T13:17:01;5;5;
47705;PMS5003;33471;52.104;1.318;2022-10-04T13:19:38;4;4;
47705;PMS5003;33471;52.104;1.318;2022-10-04T13:22:20;7;7;
47705;PMS5003;33471;52.104;1.318;2022-10-04T13:25:08;12;11;
47705;PMS5003;33471;52.104;1.318;2022-10-04T13:27:45;2;2;
47705;PMS5003;33471;52.104;1.318;2022-10-04T13:30:18;5;5;
47705;PMS5003;33471;52.104;1.318;2022-10-04T13:32:48;7;5;
47705;PMS5003;33471;52.104;1.318;2022-10-04T13:35:22;4;4;
47705;PMS5003;33471;52.104;1.318;2022-10-04T13:37:59;4;3;
47705;PMS5003;33471;52.104;1.318;2022-10-04T13:40:51;3;2;
47705;PMS5003;33471;52.104;1.318;2022-10-04T13:43:36;2;2;
47705;PMS5003;33471;52.104;1.318;2022-10-04T13:46:24;3;3;
47705;PMS5003;33471;52.104;1.318;2022-10-04T13:49:03;0;0;
47705;PMS5003;33471;52.104;1.318;2022-10-04T13:51:53;2;2;
47705;PMS5003;33471;52.104;1.318;2022-10-04T13:54:33;0;0;
47705;PMS5003;33471;52.104;1.318;2022-10-04T13:57:15;0;0;
47705;PMS5003;33471;52.104;1.318;2022-10-04T13:59:51;2;1;
47705;PMS5003;33471;52.104;1.318;2022-10-04T14:02:36;0;0;
47705;PMS5003;33471;52.104;1.318;2022-10-04T14:03:17;0;0;
47705;PMS5003;33471;52.104;1.318;2022-10-04T14:06:12;1;1;
47705;PMS5003;33471;52.104;1.318;2022-10-04T14:09:16;1;1;
47705;PMS5003;33471;52.104;1.318;2022-10-04T14:12:06;0;0;
47705;PMS5003;33471;52.104;1.318;2022-10-04T14:15:26;1;1;
47705;PMS5003;33471;52.104;1.318;2022-10-04T14:18:17;1;1;
47705;PMS5003;33471;52.104;1.318;2022-10-04T14:21:08;1;1;
47705;PMS5003;33471;52.104;1.318;2022-10-04T14:23:48;3;2;
47705;PMS5003;33471;52.104;1.318;2022-10-04T14:26:41;1;1;
47705;PMS5003;33471;52.104;1.318;2022-10-04T14:29:30;1;1;
47705;PMS5003;33471;52.104;1.318;2022-10-04T14:32:26;0;0;
47705;PMS5003;33471;52.104;1.318;2022-10-04T14:35:25;2;2;
47705;PMS5003;33471;52.104;1.318;2022-10-04T14:38:04;0;0;
47705;PMS5003;33471;52.104;1.318;2022-10-04T14:41:33;1;1;
47705;PMS5003;33471;52.104;1.318;2022-10-04T14:44:19;1;1;
47705;PMS5003;33471;52.104;1.318;2022-10-04T14:47:17;1;1;
47705;PMS5003;33471;52.104;1.318;2022-10-04T14:49:58;1;1;
47705;PMS5003;33471;52.104;1.318;2022-10-04T14:52:42;0;0;
47705;PMS5003;33471;52.104;1.318;2022-10-04T14:55:25;0;0;
47705;PMS5003;33471;52.104;1.318;2022-10-04T14:58:14;0;0;
47705;PMS5003;33471;52.104;1.318;2022-10-04T15:00:53;2;2;
47705;PMS5003;33471;52.104;1.318;2022-10-04T15:03:44;0;0;
47705;PMS5003;33471;52.104;1.318;2022-10-04T15:06:23;2;2;
47705;PMS5003;33471;52.104;1.318;2022-10-04T15:09:39;0;0;
47705;PMS5003;33471;52.104;1.318;2022-10-04T15:12:23;1;1;
47705;PMS5003;33471;52.104;1.318;2022-10-04T15:15:15;2;2;
47705;PMS5003;33471;52.104;1.318;2022-10-04T15:17:55;0;0;
47705;PMS5003;33471;52.104;1.318;2022-10-04T15:20:27;3;1;
47705;PMS5003;33471;52.104;1.318;2022-10-04T15:23:08;2;0;
47705;PMS5003;33471;52.104;1.318;2022-10-04T15:25:41;2;2;
47705;PMS5003;33471;52.104;1.318;2022-10-04T15:28:13;1;1;
47705;PMS5003;33471;52.104;1.318;2022-10-04T15:31:00;2;2;
47705;PMS5003;33471;52.104;1.318;2022-10-04T15:33:38;2;2;
47705;PMS5003;33471;52.104;1.318;2022-10-04T15:36:15;3;3;
47705;PMS5003;33471;52.104;1.318;2022-10-04T15:37:00;3;3;
47705;PMS5003;33471;52.104;1.318;2022-10-04T15:39:39;2;2;
47705;PMS5003;33471;52.104;1.318;2022-10-04T15:42:22;4;4;
47705;PMS5003;33471;52.104;1.318;2022-10-04T15:44:56;1;1;
47705;PMS5003;33471;52.104;1.318;2022-10-04T15:47:34;1;1;
47705;PMS5003;33471;52.104;1.318;2022-10-04T15:50:20;2;2;
47705;PMS5003;33471;52.104;1.318;2022-10-04T15:52:55;2;2;
47705;PMS5003;33471;52.104;1.318;2022-10-04T15:56:10;2;2;
47705;PMS5003;33471;52.104;1.318;2022-10-04T15:58:54;1;1;
47705;PMS5003;33471;52.104;1.318;2022-10-04T16:01:38;2;2;
47705;PMS5003;33471;52.104;1.318;2022-10-04T16:04:19;1;1;
47705;PMS5003;33471;52.104;1.318;2022-10-04T16:07:07;1;1;
47705;PMS5003;33471;52.104;1.318;2022-10-04T16:09:51;1;1;
47705;PMS5003;33471;52.104;1.318;2022-10-04T16:12:26;1;1;
47705;PMS5003;33471;52.104;1.318;2022-10-04T16:14:57;2;2;
47705;PMS5003;33471;52.104;1.318;2022-10-04T16:17:49;1;1;
47705;PMS5003;33471;52.104;1.318;2022-10-04T16:21:03;1;1;
47705;PMS5003;33471;52.104;1.318;2022-10-04T16:23:39;0;0;
47705;PMS5003;33471;52.104;1.318;2022-10-04T16:26:08;3;3;
47705;PMS5003;33471;52.104;1.318;2022-10-04T16:28:43;6;6;
47705;PMS5003;33471;52.104;1.318;2022-10-04T16:31:25;2;1;
47705;PMS5003;33471;52.104;1.318;2022-10-04T16:34:08;1;1;
47705;PMS5003;33471;52.104;1.318;2022-10-04T16:34:48;1;1;
47705;PMS5003;33471;52.104;1.318;2022-10-04T16:37:25;1;1;
47705;PMS5003;33471;52.104;1.318;2022-10-04T16:39:58;3;3;
47705;PMS5003;33471;52.104;1.318;2022-10-04T16:42:31;4;2;
47705;PMS5003;33471;52.104;1.318;2022-10-04T16:45:31;1;1;
47705;PMS5003;33471;52.104;1.318;2022-10-04T16:48:11;3;2;
47705;PMS5003;33471;52.104;1.318;2022-10-04T16:50:52;2;2;
47705;PMS5003;33471;52.104;1.318;2022-10-04T16:53:29;3;3;
47705;PMS5003;33471;52.104;1.318;2022-10-04T16:56:09;1;1;
47705;PMS5003;33471;52.104;1.318;2022-10-04T16:58:42;2;2;
47705;PMS5003;33471;52.104;1.318;2022-10-04T17:02:01;3;3;
47705;PMS5003;33471;52.104;1.318;2022-10-04T17:04:48;3;3;
47705;PMS5003;33471;52.104;1.318;2022-10-04T17:07:36;2;2;
47705;PMS5003;33471;52.104;1.318;2022-10-04T17:10:18;2;2;
47705;PMS5003;33471;52.104;1.318;2022-10-04T17:12:59;3;3;
47705;PMS5003;33471;52.104;1.318;2022-10-04T17:15:42;1;1;
47705;PMS5003;33471;52.104;1.318;2022-10-04T17:18:17;3;3;
47705;PMS5003;33471;52.104;1.318;2022-10-04T17:20:54;4;4;
47705;PMS5003;33471;52.104;1.318;2022-10-04T17:23:30;2;2;
47705;PMS5003;33471;52.104;1.318;2022-10-04T17:26:15;4;3;
47705;PMS5003;33471;52.104;1.318;2022-10-04T17:28:51;2;2;
47705;PMS5003;33471;52.104;1.318;2022-10-04T17:31:25;1;1;
47705;PMS5003;33471;52.104;1.318;2022-10-04T17:34:04;2;2;
47705;PMS5003;33471;52.104;1.318;2022-10-04T17:36:38;2;2;
47705;PMS5003;33471;52.104;1.318;2022-10-04T17:39:19;3;3;
47705;PMS5003;33471;52.104;1.318;2022-10-04T17:41:58;5;3;
47705;PMS5003;33471;52.104;1.318;2022-10-04T17:44:40;3;3;
47705;PMS5003;33471;52.104;1.318;2022-10-04T17:47:21;2;2;
47705;PMS5003;33471;52.104;1.318;2022-10-04T17:49:57;3;3;
47705;PMS5003;33471;52.104;1.318;2022-10-04T17:52:32;4;4;
47705;PMS5003;33471;52.104;1.318;2022-10-04T17:55:11;3;3;
47705;PMS5003;33471;52.104;1.318;2022-10-04T17:57:44;3;3;